createdAt,value
2019-03-21T00:02:04.739Z,102687.91
2019-03-21T00:07:11.305Z,102689.12
2019-03-21T00:12:18.621Z,102688.08
2019-03-21T00:17:34.128Z,102693.67
2019-03-21T00:22:47.015Z,102689.17
2019-03-21T00:27:58.732Z,102692.66
2019-03-21T00:33:10.014Z,102687.44
2019-03-21T00:38:22.492Z,102687.97
2019-03-21T00:43:34.749Z,102692.47
2019-03-21T00:48:45.120Z,102695.94
2019-03-21T00:53:55.852Z,102687.91
2019-03-21T00:59:06.690Z,102694.64
2019-03-21T01:04:17.592Z,102691.08
2019-03-21T01:09:28.758Z,102685.55
2019-03-21T01:14:43.106Z,102692.36
2019-03-21T01:19:54.846Z,102689.95
2019-03-21T01:25:09.475Z,102679.87
2019-03-21T01:30:22.810Z,102668.67
2019-03-21T01:35:35.384Z,102676.05
2019-03-21T01:40:48.293Z,102681.42
2019-03-21T01:46:00.244Z,102673.73
2019-03-21T01:51:11.534Z,102669.50
2019-03-21T01:56:23.454Z,102653.47
2019-03-21T02:01:31.972Z,102653.96
2019-03-21T02:06:39.324Z,102664.71
2019-03-21T02:11:46.028Z,102652.19
2019-03-21T02:16:54.204Z,102649.98
2019-03-21T02:22:01.638Z,102642.47
2019-03-21T02:27:11.394Z,102641.99
2019-03-21T02:32:22.405Z,102640.29
2019-03-21T02:37:32.733Z,102641.41
2019-03-21T02:42:46.450Z,102645.00
2019-03-21T02:47:58.475Z,102638.74
2019-03-21T02:53:11.157Z,102640.23
2019-03-21T02:58:22.718Z,102638.55
2019-03-21T03:03:35.312Z,102631.20
2019-03-21T03:08:46.144Z,102640.86
2019-03-21T03:13:55.756Z,102643.16
2019-03-21T03:19:07.076Z,102646.08
2019-03-21T03:24:20.612Z,102649.63
2019-03-21T03:29:35.556Z,102646.28
2019-03-21T03:34:47.198Z,102647.19
2019-03-21T03:39:59.686Z,102649.77
2019-03-21T03:45:16.115Z,102655.09
2019-03-21T03:50:30.390Z,102653.95
2019-03-21T03:55:40.289Z,102653.00
2019-03-21T04:00:51.707Z,102646.67
2019-03-21T04:06:07.797Z,102653.92
2019-03-21T04:11:21.290Z,102654.39
2019-03-21T04:16:37.771Z,102650.80
2019-03-21T04:21:52.825Z,102658.52
2019-03-21T04:27:04.655Z,102671.14
2019-03-21T04:32:16.920Z,102669.93
2019-03-21T04:37:28.982Z,102671.39
2019-03-21T04:42:41.174Z,102665.32
2019-03-21T04:47:53.153Z,102665.86
2019-03-21T04:53:05.285Z,102666.73
2019-03-21T04:58:16.944Z,102673.23
2019-03-21T05:03:30.268Z,102683.87
2019-03-21T05:08:46.035Z,102674.86
2019-03-21T05:14:00.603Z,102665.09
2019-03-21T05:19:11.149Z,102671.00
2019-03-21T05:24:23.401Z,102672.56
2019-03-21T05:29:35.284Z,102672.24
2019-03-21T05:34:46.962Z,102669.67
2019-03-21T05:39:57.821Z,102669.25
2019-03-21T05:45:13.432Z,102670.30
2019-03-21T05:50:24.459Z,102679.26
2019-03-21T05:55:35.516Z,102671.61
2019-03-21T06:00:52.839Z,102682.78
2019-03-21T06:06:05.049Z,102689.42
2019-03-21T06:11:11.226Z,102690.05
2019-03-21T06:16:18.427Z,102689.88
2019-03-21T06:21:27.069Z,102698.13
2019-03-21T06:26:46.657Z,102705.22
2019-03-21T06:31:53.203Z,102706.80
2019-03-21T06:37:00.757Z,102707.03
2019-03-21T06:42:06.656Z,102716.15
2019-03-21T06:47:14.491Z,102719.95
2019-03-21T06:52:21.045Z,102731.66
2019-03-21T06:57:28.182Z,102729.15
2019-03-21T07:02:35.925Z,102737.03
2019-03-21T07:07:43.173Z,102739.01
2019-03-21T07:12:50.012Z,102744.73
2019-03-21T07:17:55.668Z,102749.03
2019-03-21T07:23:02.432Z,102758.31
2019-03-21T07:28:08.372Z,102752.75
2019-03-21T07:33:15.215Z,102759.71
2019-03-21T07:38:20.795Z,102761.61
2019-03-21T07:43:27.074Z,102769.45
2019-03-21T07:48:33.962Z,102777.16
2019-03-21T07:53:39.855Z,102781.34
2019-03-21T07:58:45.569Z,102779.58
2019-03-21T08:03:51.542Z,102787.30
2019-03-21T08:08:58.147Z,102786.56
2019-03-21T08:14:03.981Z,102777.34
2019-03-21T08:19:10.056Z,102778.34
2019-03-21T08:24:17.348Z,102779.15
2019-03-21T08:29:24.339Z,102782.59
2019-03-21T08:34:30.106Z,102786.05
2019-03-21T08:39:37.232Z,102796.61
2019-03-21T08:44:44.464Z,102800.00
2019-03-21T08:49:50.055Z,102795.12
2019-03-21T08:54:55.726Z,102792.95
2019-03-21T09:00:01.281Z,102801.15
2019-03-21T09:05:10.131Z,102799.98
2019-03-21T09:10:16.148Z,102809.10
2019-03-21T09:15:24.195Z,102796.61
2019-03-21T09:20:30.626Z,102794.77
2019-03-21T09:25:38.851Z,102794.23
2019-03-21T09:30:46.243Z,102803.33
2019-03-21T09:35:53.757Z,102800.80
2019-03-21T09:40:59.488Z,102796.96
2019-03-21T09:46:06.357Z,102788.14
2019-03-21T09:51:12.318Z,102797.02
2019-03-21T09:56:18.152Z,102796.13
2019-03-21T10:01:25.802Z,102791.80
2019-03-21T10:06:32.655Z,102792.22
2019-03-21T10:11:39.346Z,102789.66
2019-03-21T10:16:45.726Z,102793.94
2019-03-21T10:21:51.706Z,102782.79
2019-03-21T10:26:57.530Z,102798.16
2019-03-21T10:32:13.919Z,102773.58
2019-03-21T10:37:11.124Z,102781.22
2019-03-21T10:42:17.134Z,102789.70
2019-03-21T10:47:22.865Z,102787.98
2019-03-21T10:52:29.047Z,102790.77
2019-03-21T10:57:34.800Z,102786.77
2019-03-21T11:02:40.686Z,102779.82
2019-03-21T11:07:47.147Z,102780.77
2019-03-21T11:12:52.962Z,102783.11
2019-03-21T18:06:27.792Z,102580.86
2019-03-21T18:11:36.472Z,102587.20
2019-03-21T18:16:44.925Z,102582.47
2019-03-21T18:21:53.032Z,102591.31
2019-03-21T18:26:59.310Z,102593.55
2019-03-21T18:32:10.959Z,102594.95
2019-03-21T18:37:16.810Z,102597.06
2019-03-21T18:42:23.939Z,102600.58
2019-03-21T18:47:31.381Z,102593.50
2019-03-21T18:52:38.400Z,102589.24
2019-03-21T18:57:45.652Z,102604.61
2019-03-21T19:02:52.571Z,102610.36
2019-03-21T19:07:58.328Z,102619.73
2019-03-21T19:13:05.080Z,102626.06
2019-03-21T19:18:12.305Z,102625.36
2019-03-21T19:23:18.075Z,102630.50
2019-03-21T19:28:26.304Z,102645.48
2019-03-21T19:33:32.357Z,102636.98
2019-03-21T19:38:38.405Z,102642.25
2019-03-21T19:43:47.356Z,102649.50
2019-03-21T19:48:53.107Z,102640.14
2019-03-21T19:53:59.855Z,102639.72
2019-03-21T19:59:06.854Z,102636.63
2019-03-21T20:04:14.827Z,102637.13
2019-03-21T20:09:21.217Z,102633.09
2019-03-21T20:14:27.249Z,102632.07
2019-03-21T20:19:34.657Z,102634.50
2019-03-21T20:24:41.204Z,102637.31
2019-03-21T20:29:50.360Z,102644.08
2019-03-21T20:34:56.360Z,102642.00
2019-03-21T20:40:02.281Z,102639.70
2019-03-21T20:45:10.848Z,102642.16
2019-03-21T20:50:19.168Z,102637.85
2019-03-21T20:55:25.731Z,102640.87
2019-03-21T21:00:32.584Z,102639.55
2019-03-21T21:05:39.201Z,102637.95
2019-03-21T21:10:45.357Z,102638.39
2019-03-21T21:15:54.335Z,102655.94
2019-03-21T21:21:00.502Z,102651.24
2019-03-21T21:26:08.095Z,102661.11
2019-03-21T21:31:13.995Z,102663.36
2019-03-21T21:36:23.032Z,102670.25
2019-03-21T21:41:29.337Z,102666.42
2019-03-21T21:46:35.764Z,102667.48
2019-03-21T21:51:41.436Z,102660.49
2019-03-21T21:56:47.188Z,102656.34
2019-03-21T22:01:54.744Z,102651.55
2019-03-21T22:07:00.742Z,102643.81
2019-03-21T22:12:06.911Z,102651.41
2019-03-21T22:17:13.026Z,102650.91
2019-03-21T22:22:19.391Z,102651.27
2019-03-21T22:27:28.967Z,102657.39
2019-03-21T22:32:35.311Z,102658.50
2019-03-21T22:37:43.671Z,102647.33
2019-03-21T22:42:49.449Z,102652.69
2019-03-21T22:47:56.666Z,102647.83
2019-03-21T22:53:02.254Z,102651.27
2019-03-21T22:58:07.934Z,102650.52
2019-03-21T23:03:16.547Z,102656.30
2019-03-21T23:08:22.313Z,102651.98
2019-03-21T23:13:29.083Z,102661.30
2019-03-21T23:18:34.682Z,102652.52
2019-03-21T23:23:41.905Z,102651.25
2019-03-21T23:28:47.487Z,102650.11
2019-03-21T23:33:53.141Z,102647.95
2019-03-21T23:39:00.612Z,102646.02
2019-03-21T23:44:08.303Z,102641.99
2019-03-21T23:49:14.214Z,102641.09
2019-03-21T23:54:20.483Z,102646.57
2019-03-21T23:59:26.285Z,102642.42
